Time;durP1;ratioP1;P1;durP2;ratioP2;P2;SDS_P1;SDS_P2;PMS_P1;PMS_P2;Temp;Humidity;BMP_temperature;BMP_pressure;BME280_temperature;BME280_humidity;BME280_pressure;Samples;Min_cycle;Max_cycle;Signal;HPM_P1;HPM_P2
2023/09/07 00:01:32;;;;;;;30.15;9.93;;;;;;;16.57;79.64;100444.06;10543295;28;20040;-76
2023/09/07 00:06:34;;;;;;;23.90;6.68;;;;;;;16.67;79.87;100436.44;10543297;28;20131;-76
2023/09/07 00:11:35;;;;;;;21.42;4.47;;;;;;;16.72;79.49;100422.41;10542704;28;20036;-76
2023/09/07 00:16:37;;;;;;;27.92;5.40;;;;;;;16.56;79.51;100417.44;10543314;28;20040;-75
2023/09/07 00:21:39;;;;;;;17.23;5.38;;;;;;;16.21;80.21;100401.50;10543167;28;20504;-76
2023/09/07 00:26:39;;;;;;;13.82;4.43;;;;;;;16.49;80.43;100440.75;10543162;28;20043;-76
2023/09/07 00:31:41;;;;;;;28.33;3.90;;;;;;;16.50;80.49;100447.75;10542430;28;20040;-76
2023/09/07 00:36:42;;;;;;;21.73;4.53;;;;;;;16.20;80.86;100407.91;10541736;28;20044;-77
2023/09/07 00:41:42;;;;;;;13.90;4.50;;;;;;;16.11;81.09;100411.81;10541310;28;20040;-77
2023/09/07 00:46:44;;;;;;;8.30;3.85;;;;;;;16.04;81.50;100394.91;10540546;28;20043;-76
2023/09/07 00:51:45;;;;;;;12.38;3.85;;;;;;;15.93;81.16;100382.91;10541459;28;20437;-76
2023/09/07 00:56:46;;;;;;;14.38;4.10;;;;;;;15.83;81.43;100396.69;10541183;28;20078;-76
2023/09/07 01:01:48;;;;;;;16.27;4.03;;;;;;;15.92;81.87;100442.88;10540607;28;20495;-76
2023/09/07 01:06:58;;;;;;;18.98;3.80;;;;;;;15.77;83.54;100423.47;10540621;28;20048;-75
2023/09/07 01:11:58;;;;;;;13.55;4.15;;;;;;;15.93;82.45;100441.84;10541339;28;20130;-76
2023/09/07 01:17:00;;;;;;;11.32;4.20;;;;;;;15.78;82.48;100439.31;10540456;28;20127;-76
2023/09/07 01:22:02;;;;;;;11.60;3.58;;;;;;;15.60;83.07;100436.31;10540409;28;20445;-76
2023/09/07 01:27:04;;;;;;;22.42;4.55;;;;;;;15.64;83.38;100429.53;10540188;28;20438;-76
2023/09/07 01:32:06;;;;;;;23.55;4.47;;;;;;;15.74;83.50;100435.38;10539846;28;20043;-75
2023/09/07 01:37:06;;;;;;;27.95;4.93;;;;;;;15.26;83.23;100361.19;10539629;28;20036;-76
2023/09/07 01:42:07;;;;;;;17.33;4.20;;;;;;;15.40;83.70;100407.56;10538944;28;20036;-76
2023/09/07 01:47:08;;;;;;;22.80;4.75;;;;;;;15.33;83.89;100413.94;10538841;28;20043;-76
2023/09/07 01:52:09;;;;;;;13.93;4.13;;;;;;;15.38;83.71;100396.25;10539069;28;20036;-75
2023/09/07 01:57:09;;;;;;;51.33;5.15;;;;;;;15.48;83.27;100425.34;10538357;28;20047;-75
2023/09/07 02:02:10;;;;;;;40.40;5.55;;;;;;;15.30;83.45;100410.63;10538043;28;20488;-76
2023/09/07 02:07:13;;;;;;;79.28;7.78;;;;;;;15.36;83.54;100429.59;10533516;28;20055;-78
2023/09/07 02:12:14;;;;;;;33.78;5.65;;;;;;;15.29;83.39;100429.56;10480939;28;20040;-76
2023/09/07 02:17:17;;;;;;;100.80;8.93;;;;;;;15.26;83.27;100433.47;10522551;28;20039;-76
2023/09/07 02:22:18;;;;;;;87.88;8.20;;;;;;;15.02;83.47;100394.59;10538181;28;20047;-75
2023/09/07 02:27:19;;;;;;;100.68;7.45;;;;;;;15.25;83.48;100436.31;10537455;28;20036;-76
2023/09/07 02:32:19;;;;;;;68.53;7.03;;;;;;;14.74;83.39;100369.72;10537176;28;20043;-76
2023/09/07 02:37:20;;;;;;;141.45;11.52;;;;;;;14.62;83.72;100364.06;10537609;28;20047;-75
2023/09/07 02:42:21;;;;;;;32.92;4.78;;;;;;;14.59;83.82;100378.63;10537926;28;20044;-75
2023/09/07 02:47:22;;;;;;;99.28;8.88;;;;;;;14.78;84.03;100405.75;10518504;28;20502;-75
2023/09/07 02:52:22;;;;;;;45.80;5.05;;;;;;;14.57;84.12;100356.63;10518497;28;20048;-75
2023/09/07 02:57:23;;;;;;;58.05;5.25;;;;;;;15.11;84.31;100422.03;10536807;28;20040;-76
2023/09/07 03:02:24;;;;;;;18.38;4.68;;;;;;;15.45;83.73;100447.97;10536437;28;20085;-75
2023/09/07 03:07:25;;;;;;;90.35;7.93;;;;;;;15.47;83.32;100411.13;10536517;28;20056;-75
2023/09/07 03:12:26;;;;;;;55.55;5.45;;;;;;;15.31;83.13;100357.91;10538436;28;20118;-76
2023/09/07 03:17:27;;;;;;;105.47;9.32;;;;;;;15.45;82.90;100372.19;10544574;28;20093;-76
2023/09/07 03:22:29;;;;;;;33.00;5.95;;;;;;;16.11;82.20;100435.94;10544406;28;20112;-75
2023/09/07 03:27:30;;;;;;;139.63;10.52;;;;;;;16.50;81.71;100421.78;10544360;28;20036;-75
2023/09/07 03:32:33;;;;;;;208.05;15.45;;;;;;;17.12;80.93;100409.00;10544057;28;20648;-75
2023/09/07 03:37:33;;;;;;;51.83;5.78;;;;;;;17.81;77.67;100394.13;10561529;28;20031;-75
2023/09/07 03:42:35;;;;;;;48.28;10.23;;;;;;;18.89;74.54;100418.22;10587123;28;20040;-75
2023/09/07 03:47:37;;;;;;;42.55;5.72;;;;;;;20.00;71.52;100437.13;10586318;28;20173;-75
2023/09/07 03:52:38;;;;;;;211.50;46.50;;;;;;;20.93;68.98;100431.16;10567993;28;20138;-75
2023/09/07 03:57:38;;;;;;;121.90;40.90;;;;;;;21.68;66.48;100424.19;10585330;28;20134;-75
2023/09/07 04:02:39;;;;;;;54.28;15.27;;;;;;;22.40;64.00;100425.56;10586201;28;20044;-75
2023/09/07 04:07:40;;;;;;;65.80;8.80;;;;;;;22.74;62.44;100408.28;10567383;28;20056;-75
2023/09/07 04:12:41;;;;;;;17.58;4.68;;;;;;;23.10;61.21;100419.69;10564886;28;20043;-75
2023/09/07 04:17:41;;;;;;;11.50;3.28;;;;;;;23.40;58.63;100375.91;10542186;28;20036;-75
2023/09/07 04:22:42;;;;;;;28.90;4.05;;;;;;;23.94;57.15;100402.34;10540289;28;20036;-76
2023/09/07 04:27:43;;;;;;;11.75;3.70;;;;;;;23.94;56.18;100375.22;10542343;28;20039;-75
2023/09/07 04:32:43;;;;;;;13.25;3.25;;;;;;;24.62;54.52;100424.47;10542089;28;20035;-75
2023/09/07 04:37:45;;;;;;;13.43;3.22;;;;;;;24.33;54.27;100399.47;10541587;28;20040;-75
2023/09/07 04:42:46;;;;;;;19.48;3.13;;;;;;;24.17;53.85;100389.53;10541563;28;20403;-73
2023/09/07 04:47:47;;;;;;;45.25;4.03;;;;;;;24.11;53.61;100430.22;10523664;28;20047;-74
2023/09/07 04:52:47;;;;;;;23.65;3.67;;;;;;;22.79;53.86;100274.84;10540625;28;20043;-73
2023/09/07 04:57:48;;;;;;;13.25;2.75;;;;;;;22.62;53.84;100271.38;10540572;28;20039;-74
2023/09/07 05:02:49;;;;;;;29.30;4.10;;;;;;;23.66;53.96;100444.84;10541613;28;20032;-74
2023/09/07 05:07:50;;;;;;;25.10;4.13;;;;;;;22.93;54.54;100348.44;10522615;28;20091;-74
2023/09/07 05:12:51;;;;;;;29.58;3.33;;;;;;;22.76;54.50;100289.72;10540371;28;20040;-74
2023/09/07 05:17:55;;;;;;;15.18;2.70;;;;;;;23.26;53.94;100336.72;10522237;28;20036;-74
2023/09/07 05:22:56;;;;;;;8.82;2.72;;;;;;;23.72;54.02;100393.41;10522107;28;20036;-74
2023/09/07 05:27:57;;;;;;;8.73;2.40;;;;;;;23.48;53.85;100325.84;10540129;28;20028;-75
2023/09/07 05:32:58;;;;;;;18.92;3.15;;;;;;;24.40;53.14;100446.22;10521563;28;20073;-76
2023/09/07 05:37:59;;;;;;;37.03;4.50;;;;;;;24.51;52.80;100445.28;10519863;28;20042;-73
2023/09/07 05:42:59;;;;;;;51.38;6.45;;;;;;;24.34;53.31;100401.91;10520989;28;20043;-74
2023/09/07 05:48:00;;;;;;;20.50;3.22;;;;;;;23.54;52.13;100281.44;10539135;28;20514;-74
2023/09/07 05:53:02;;;;;;;25.48;3.28;;;;;;;24.12;53.20;100344.16;10539254;28;20060;-73
2023/09/07 05:58:07;;;;;;;20.20;4.05;;;;;;;24.11;50.82;100313.50;10538105;28;20040;-73
2023/09/07 06:03:09;;;;;;;13.98;3.33;;;;;;;24.53;50.90;100355.38;10538494;28;20372;-73
2023/09/07 06:08:10;;;;;;;11.50;2.60;;;;;;;24.68;49.98;100333.78;10537621;28;20135;-75
2023/09/07 06:13:10;;;;;;;21.77;3.25;;;;;;;25.00;49.51;100366.28;10519703;28;20138;-74
2023/09/07 06:18:11;;;;;;;10.43;2.95;;;;;;;25.26;47.89;100355.59;10538647;28;20081;-74
2023/09/07 06:23:12;;;;;;;24.27;3.00;;;;;;;25.76;47.46;100397.66;10519169;28;20047;-74
2023/09/07 06:28:13;;;;;;;12.13;2.30;;;;;;;25.69;46.90;100369.88;10537697;28;20042;-74
2023/09/07 06:33:13;;;;;;;5.25;1.75;;;;;;;25.57;46.16;100356.50;10537430;28;20036;-75
2023/09/07 06:38:14;;;;;;;6.13;2.13;;;;;;;25.81;45.35;100348.69;10537987;28;20070;-74
2023/09/07 06:43:15;;;;;;;8.13;2.47;;;;;;;26.29;45.71;100402.97;10536912;28;20040;-74
2023/09/07 06:48:15;;;;;;;4.30;2.35;;;;;;;26.86;44.08;100418.22;10536293;28;20040;-74
2023/09/07 06:53:16;;;;;;;11.93;2.83;;;;;;;26.96;44.10;100379.25;10537444;28;20036;-75
2023/09/07 06:58:18;;;;;;;8.15;2.47;;;;;;;26.61;44.19;100368.13;10518860;28;20044;-74
2023/09/07 07:03:18;;;;;;;6.30;2.33;;;;;;;25.86;43.51;100239.88;10536802;28;20514;-74
2023/09/07 07:08:19;;;;;;;9.85;2.28;;;;;;;26.54;44.16;100351.25;10518887;28;20040;-74
2023/09/07 07:13:20;;;;;;;30.50;3.30;;;;;;;26.91;44.49;100376.53;10537046;28;20083;-75
2023/09/07 07:18:22;;;;;;;11.43;2.45;;;;;;;27.35;42.57;100376.72;10538015;28;20063;-75
2023/09/07 07:23:23;;;;;;;11.32;2.70;;;;;;;26.83;42.16;100353.38;10536748;28;20127;-75
2023/09/07 07:28:24;;;;;;;11.70;2.58;;;;;;;27.28;42.93;100343.44;10518170;28;20127;-75
2023/09/07 07:33:24;;;;;;;13.63;2.40;;;;;;;27.74;41.11;100368.59;10536126;28;20040;-75
2023/09/07 07:38:25;;;;;;;8.60;1.98;;;;;;;27.94;40.21;100372.31;10536361;28;20094;-73
2023/09/07 07:43:26;;;;;;;4.22;2.10;;;;;;;27.79;39.73;100334.22;10535298;28;20132;-74
2023/09/07 07:48:29;;;;;;;10.27;2.33;;;;;;;28.23;39.18;100373.22;10536477;28;20032;-74
2023/09/07 07:53:31;;;;;;;7.47;2.35;;;;;;;27.95;38.79;100305.72;10536406;28;20040;-75
2023/09/07 07:58:31;;;;;;;6.65;2.33;;;;;;;28.19;38.39;100353.03;10538854;28;20040;-75
2023/09/07 08:03:32;;;;;;;7.47;2.45;;;;;;;28.18;38.57;100343.22;10543680;28;20044;-75
2023/09/07 08:08:33;;;;;;;12.75;2.50;;;;;;;28.14;39.14;100317.56;10542704;28;20040;-75
2023/09/07 08:13:34;;;;;;;13.65;2.47;;;;;;;28.12;38.50;100303.41;10543240;28;20067;-76
2023/09/07 08:18:35;;;;;;;8.93;2.22;;;;;;;28.12;37.87;100280.72;10542314;28;20044;-75
2023/09/07 08:23:36;;;;;;;8.10;2.10;;;;;;;28.31;37.55;100286.31;10542642;28;20051;-75
2023/09/07 08:28:36;;;;;;;14.95;2.85;;;;;;;28.62;37.22;100309.50;10542518;28;20483;-75
2023/09/07 08:33:40;;;;;;;13.00;2.38;;;;;;;28.67;37.19;100295.78;10542426;28;20032;-76
2023/09/07 08:38:40;;;;;;;52.33;4.15;;;;;;;28.81;37.13;100308.78;10542657;28;20407;-76
2023/09/07 08:43:46;;;;;;;11.10;2.05;;;;;;;28.98;36.51;100313.75;10542283;28;20044;-75
2023/09/07 08:48:49;;;;;;;9.43;2.03;;;;;;;28.89;37.55;100288.97;10541616;28;20491;-75
2023/09/07 08:53:49;;;;;;;9.55;2.35;;;;;;;29.19;37.17;100303.41;10541428;28;20032;-75
2023/09/07 08:58:50;;;;;;;15.63;2.17;;;;;;;29.12;36.15;100288.19;10541189;28;20040;-75
2023/09/07 09:03:52;;;;;;;9.52;2.20;;;;;;;29.07;36.04;100277.28;10541157;28;20064;-75
2023/09/07 09:08:57;;;;;;;7.40;2.38;;;;;;;29.18;36.90;100288.13;10540597;28;20044;-75
2023/09/07 09:13:57;;;;;;;8.38;2.20;;;;;;;29.37;36.32;100271.72;10540211;28;20541;-77
2023/09/07 09:18:59;;;;;;;12.10;2.75;;;;;;;29.43;36.30;100287.75;10540552;28;20094;-73
2023/09/07 09:24:00;;;;;;;15.77;2.70;;;;;;;29.42;36.54;100272.47;10540425;28;20075;-74
2023/09/07 09:29:01;;;;;;;7.63;2.15;;;;;;;29.22;36.44;100228.97;10540099;28;20074;-75
2023/09/07 09:34:02;;;;;;;28.58;3.55;;;;;;;29.53;36.69;100254.78;10521903;28;20078;-74
2023/09/07 09:39:03;;;;;;;17.23;3.40;;;;;;;29.55;36.58;100240.78;10521112;28;20039;-73
2023/09/07 09:44:06;;;;;;;5.90;2.15;;;;;;;29.52;35.40;100244.94;10539386;28;20046;-74
2023/09/07 09:49:08;;;;;;;11.43;4.32;;;;;;;28.95;35.69;100172.97;10539438;28;20094;-76
2023/09/07 09:54:10;;;;;;;5.93;2.40;;;;;;;29.10;35.72;100216.53;10539904;28;20087;-74
2023/09/07 09:59:12;;;;;;;11.50;2.45;;;;;;;28.62;35.53;100202.09;10538304;28;20028;-73
2023/09/07 10:04:15;;;;;;;;;;;;;;;29.58;34.95;100259.34;10539268;28;20056;-73
2023/09/07 10:09:18;;;;;;;5.60;2.00;;;;;;;29.05;35.48;100193.94;10538478;28;19931;-73
2023/09/07 10:14:19;;;;;;;7.00;2.10;;;;;;;29.02;35.41;100161.72;10538013;28;20150;-74
2023/09/07 10:19:24;;;;;;;9.05;2.72;;;;;;;29.64;34.87;100241.78;10537831;28;20134;-73
2023/09/07 10:24:39;;;;;;;8.85;1.80;;;;;;;29.69;34.38;100228.00;10537563;28;20079;-73
2023/09/07 10:29:42;;;;;;;7.90;2.10;;;;;;;28.90;35.02;100170.31;10519840;28;20032;-73
2023/09/07 10:34:43;;;;;;;6.03;1.85;;;;;;;28.32;35.91;100209.50;10519653;28;20032;-75
2023/09/07 10:39:45;;;;;;;38.65;3.58;;;;;;;28.50;36.46;100216.19;10538096;28;20554;-74
2023/09/07 10:44:45;;;;;;;17.35;2.47;;;;;;;28.52;36.44;100189.38;10537212;28;20058;-75
2023/09/07 10:49:46;;;;;;;4.38;1.80;;;;;;;28.71;34.81;100155.81;10537458;28;20095;-73
2023/09/07 10:54:56;;;;;;;5.35;1.83;;;;;;;29.50;33.92;100219.81;10537560;28;20040;-74
2023/09/07 10:59:57;;;;;;;7.65;1.95;;;;;;;29.02;33.88;100110.56;10537933;28;20044;-74
2023/09/07 11:04:58;;;;;;;42.10;3.45;;;;;;;29.21;34.87;100213.69;10536733;28;20067;-74
2023/09/07 11:09:59;;;;;;;64.80;4.97;;;;;;;28.01;36.49;100123.56;10536785;28;20575;-74
2023/09/07 11:15:00;;;;;;;6.35;1.92;;;;;;;27.47;36.92;100095.41;10518883;28;20039;-74
2023/09/07 11:20:06;;;;;;;18.55;2.50;;;;;;;27.19;36.18;100046.00;10518177;28;20510;-74
2023/09/07 11:25:07;;;;;;;12.45;2.35;;;;;;;28.75;34.89;100178.69;10518581;28;20055;-73
2023/09/07 11:30:10;;;;;;;34.92;4.25;;;;;;;29.11;34.97;100165.41;10537389;28;20036;-74
2023/09/07 11:35:11;;;;;;;7.20;1.80;;;;;;;29.32;34.23;100154.97;10543859;28;20040;-73
2023/09/07 11:40:12;;;;;;;18.48;2.40;;;;;;;29.21;33.94;100123.41;10543919;28;20036;-73
2023/09/07 11:45:13;;;;;;;7.68;1.98;;;;;;;29.32;33.58;100144.84;10543461;28;20066;-74
2023/09/07 11:50:17;;;;;;;4.30;1.55;;;;;;;29.27;33.07;100112.06;10543366;28;20097;-73
2023/09/07 11:55:18;;;;;;;6.70;2.00;;;;;;;29.43;33.14;100098.13;10543318;28;20040;-75
2023/09/07 12:00:20;;;;;;;3.55;1.77;;;;;;;29.74;33.01;100117.63;10525838;28;20560;-73
2023/09/07 12:05:21;;;;;;;5.93;1.95;;;;;;;29.63;33.39;100095.09;10543496;28;20059;-74
2023/09/07 12:10:21;;;;;;;6.47;1.80;;;;;;;29.09;32.74;100030.88;10537570;28;20132;-73
2023/09/07 12:15:22;;;;;;;9.77;2.50;;;;;;;29.64;33.27;100115.06;10493508;28;20040;-75
2023/09/07 12:20:23;;;;;;;9.00;2.25;;;;;;;29.24;33.05;100077.09;10520434;28;20036;-74
2023/09/07 12:25:25;;;;;;;11.02;2.08;;;;;;;29.11;33.47;100129.84;10522198;28;20070;-77
2023/09/07 12:30:26;;;;;;;14.15;2.42;;;;;;;28.02;34.35;100046.00;10531349;28;20040;-76
2023/09/07 12:35:27;;;;;;;5.43;1.60;;;;;;;28.45;34.23;100087.84;10539440;28;20043;-75
2023/09/07 12:40:28;;;;;;;5.95;1.92;;;;;;;28.99;33.44;100113.88;10540531;28;20043;-75
2023/09/07 12:45:28;;;;;;;16.63;2.90;;;;;;;29.01;32.91;100117.09;10540232;28;20075;-75
2023/09/07 12:50:29;;;;;;;17.63;2.17;;;;;;;28.61;32.97;100058.38;10539498;28;20044;-76
2023/09/07 12:55:30;;;;;;;18.77;2.55;;;;;;;28.85;33.11;100069.22;10540505;28;20043;-76
2023/09/07 13:00:30;;;;;;;16.33;2.60;;;;;;;28.89;32.70;100073.78;10542018;28;20032;-76
2023/09/07 13:05:31;;;;;;;11.82;2.20;;;;;;;29.19;32.25;100095.53;10539922;28;20527;-76
2023/09/07 13:10:33;;;;;;;40.35;2.95;;;;;;;29.10;32.47;100093.47;10523914;28;20040;-78
2023/09/07 13:15:34;;;;;;;55.67;5.07;;;;;;;29.17;33.21;100104.03;10525959;28;20065;-77
2023/09/07 13:20:35;;;;;;;14.50;2.45;;;;;;;28.99;33.00;100056.44;10536593;28;20039;-87
2023/09/07 13:25:35;;;;;;;56.88;4.07;;;;;;;29.35;32.19;100114.13;10539748;28;20055;-82
2023/09/07 13:30:36;;;;;;;14.27;2.15;;;;;;;28.80;32.32;100100.19;10539244;28;20040;-86
2023/09/07 13:35:37;;;;;;;33.70;4.30;;;;;;;28.25;32.93;100082.59;10520861;28;20047;-82
2023/09/07 13:40:38;;;;;;;138.48;9.73;;;;;;;27.78;33.89;100079.56;10526918;28;20483;-82
2023/09/07 13:45:39;;;;;;;334.35;23.90;;;;;;;27.26;35.14;100046.47;10499968;28;20032;-83
2023/09/07 13:50:40;;;;;;;56.13;4.68;;;;;;;27.52;35.34;100089.88;10502539;28;20046;-82
2023/09/07 13:55:42;;;;;;;11.25;1.80;;;;;;;27.50;33.82;100040.25;10538234;28;20036;-80
2023/09/07 14:00:42;;;;;;;55.63;4.00;;;;;;;27.64;34.10;100054.84;10539113;28;20036;-81
2023/09/07 14:05:43;;;;;;;114.90;7.00;;;;;;;27.75;33.92;100097.28;10539506;28;20064;-81
2023/09/07 14:10:44;;;;;;;53.75;4.50;;;;;;;27.59;33.97;100100.47;10538136;28;20039;-81
2023/09/07 14:15:45;;;;;;;41.45;3.20;;;;;;;27.27;34.14;100085.47;10538515;28;20040;-82
2023/09/07 14:20:46;;;;;;;121.28;9.15;;;;;;;26.54;35.49;100002.56;10538464;28;20085;-82
2023/09/07 14:25:47;;;;;;;96.35;6.68;;;;;;;26.74;36.20;100058.00;10538149;28;20117;-82
2023/09/07 14:30:48;;;;;;;56.05;4.57;;;;;;;26.88;36.87;100113.50;10538190;28;20036;-82
2023/09/07 14:35:53;;;;;;;243.35;15.10;;;;;;;26.54;38.10;100056.22;10519978;28;20524;-83
2023/09/07 14:40:55;;;;;;;371.48;24.65;;;;;;;26.65;38.33;100079.56;10537358;28;20051;-83
2023/09/07 14:45:56;;;;;;;126.85;9.93;;;;;;;26.64;39.21;100100.56;10537156;28;20039;-83
2023/09/07 14:50:56;;;;;;;287.33;19.33;;;;;;;26.40;39.88;100088.66;10537823;28;20052;-83
2023/09/07 14:55:57;;;;;;;60.83;7.93;;;;;;;25.78;39.02;100003.66;10537463;28;20111;-84
2023/09/07 15:00:58;;;;;;;103.35;9.15;;;;;;;26.08;40.66;100086.34;10537126;28;20036;-84
2023/09/07 15:05:59;;;;;;;36.75;7.22;;;;;;;25.39;41.30;100026.06;10519293;28;20060;-84
2023/09/07 15:11:02;;;;;;;63.17;10.68;;;;;;;25.54;43.45;100114.16;10527839;28;20074;-85
2023/09/07 15:16:04;;;;;;;123.20;11.45;;;;;;;25.32;45.10;100114.44;10545977;28;20048;-84
2023/09/07 15:21:05;;;;;;;86.35;9.23;;;;;;;24.67;46.63;100055.06;10544754;28;20454;-85
2023/09/07 15:26:06;;;;;;;192.70;12.98;;;;;;;24.73;48.52;100110.22;10544977;28;20108;-85
2023/09/07 15:31:07;;;;;;;84.00;8.77;;;;;;;24.52;50.01;100125.66;10545483;28;20062;-86
2023/09/07 15:48:28;;;;;;;107.95;15.57;;;;;;;22.77;51.46;99973.69;10544335;28;20051;-70
2023/09/07 15:53:32;;;;;;;126.32;17.20;;;;;;;23.71;53.17;100156.63;10544014;28;20044;-69
2023/09/07 15:58:33;;;;;;;70.75;16.00;;;;;;;23.46;50.02;100146.38;10542385;28;20048;-69
2023/09/07 16:03:34;;;;;;;50.75;12.52;;;;;;;23.52;49.54;100174.34;10533040;28;20357;-70
2023/09/07 16:08:35;;;;;;;31.63;6.32;;;;;;;23.20;46.81;100121.72;10521089;28;20036;-70
2023/09/07 16:13:36;;;;;;;21.30;4.18;;;;;;;23.45;45.10;100145.56;10520918;28;20040;-69
2023/09/07 16:18:37;;;;;;;19.13;4.18;;;;;;;23.66;44.56;100184.50;10519727;28;20047;-69
2023/09/07 16:23:38;;;;;;;25.42;5.22;;;;;;;23.69;44.14;100213.84;10520527;28;20445;-70
2023/09/07 16:28:38;;;;;;;30.70;5.18;;;;;;;23.63;44.27;100217.56;10516533;28;20068;-69
2023/09/07 16:33:39;;;;;;;28.30;5.90;;;;;;;23.51;43.95;100213.34;10523307;28;20040;-69
2023/09/07 16:38:40;;;;;;;19.13;6.03;;;;;;;23.44;43.60;100222.50;10524695;28;20097;-69
2023/09/07 16:43:41;;;;;;;23.58;6.78;;;;;;;23.20;43.97;100202.22;10524133;28;20500;-71
2023/09/07 16:48:41;;;;;;;63.60;8.15;;;;;;;23.11;45.00;100242.50;10499460;28;20037;-69
2023/09/07 16:53:42;;;;;;;50.75;6.65;;;;;;;22.74;44.91;100213.31;10499907;28;20142;-69
2023/09/07 16:58:43;;;;;;;132.65;11.00;;;;;;;22.81;45.34;100242.09;10481598;28;20044;-69
2023/09/07 17:03:44;;;;;;;23.05;4.10;;;;;;;22.76;44.09;100224.72;10498932;28;20156;-70
2023/09/07 17:08:45;;;;;;;23.00;3.90;;;;;;;22.87;43.28;100252.75;10499446;28;20127;-70
2023/09/07 17:13:46;;;;;;;9.73;2.90;;;;;;;22.70;43.64;100230.31;10498191;28;20404;-70
2023/09/07 17:18:46;;;;;;;13.80;2.25;;;;;;;22.60;42.62;100220.16;10498248;28;20040;-69
2023/09/07 17:23:49;;;;;;;8.05;2.80;;;;;;;22.73;42.34;100227.09;10498770;28;20045;-70
2023/09/07 17:28:52;;;;;;;12.27;2.35;;;;;;;22.68;41.96;100216.22;10538314;28;20372;-68
2023/09/07 17:33:53;;;;;;;24.93;2.30;;;;;;;22.95;41.77;100251.53;10540097;28;20048;-68
2023/09/07 17:38:54;;;;;;;9.77;2.50;;;;;;;22.94;41.91;100258.81;10521845;28;20035;-69
2023/09/07 17:43:55;;;;;;;14.50;2.80;;;;;;;22.69;43.49;100256.56;10539959;28;20467;-70
2023/09/07 17:48:56;;;;;;;16.05;4.28;;;;;;;22.18;45.31;100209.81;10539311;28;20130;-71
2023/09/07 17:53:58;;;;;;;33.17;6.07;;;;;;;21.99;46.68;100216.56;10520455;28;20048;-70
2023/09/07 17:58:59;;;;;;;28.58;4.97;;;;;;;22.15;47.71;100256.28;10538588;28;20040;-70
2023/09/07 18:04:00;;;;;;;34.22;5.15;;;;;;;21.95;48.01;100235.13;10537937;28;20109;-69
2023/09/07 18:09:01;;;;;;;22.40;3.70;;;;;;;22.10;47.48;100251.59;10538912;28;20564;-70
2023/09/07 18:14:02;;;;;;;20.13;3.13;;;;;;;22.26;47.69;100252.72;10520992;28;20067;-70
2023/09/07 18:19:03;;;;;;;16.73;3.55;;;;;;;22.09;47.37;100211.28;10519731;28;20063;-69
2023/09/07 18:24:04;;;;;;;29.73;4.25;;;;;;;22.22;48.05;100254.25;10538482;28;20044;-70
2023/09/07 18:29:05;;;;;;;37.92;3.53;;;;;;;22.16;47.97;100225.44;10533283;28;20040;-70
2023/09/07 18:34:05;;;;;;;17.75;2.95;;;;;;;22.37;47.78;100247.44;10525076;28;20055;-71
2023/09/07 18:39:08;;;;;;;10.57;2.70;;;;;;;22.32;47.73;100235.47;10536119;28;20415;-69
2023/09/07 18:44:09;;;;;;;24.00;2.77;;;;;;;22.48;47.54;100236.50;10535442;28;20044;-69
2023/09/07 18:49:10;;;;;;;12.27;2.40;;;;;;;22.53;48.40;100242.00;10518609;28;20036;-70
2023/09/07 18:54:11;;;;;;;26.95;3.53;;;;;;;22.31;48.78;100223.00;10537606;28;20100;-71
2023/09/07 18:59:13;;;;;;;11.75;2.10;;;;;;;22.46;47.76;100248.66;10537933;28;20119;-69
2023/09/07 19:04:13;;;;;;;14.07;2.25;;;;;;;22.08;46.48;100177.19;10537341;28;20060;-69
2023/09/07 19:09:15;;;;;;;12.60;2.30;;;;;;;22.41;45.92;100233.19;10537241;28;20462;-69
2023/09/07 19:14:16;;;;;;;12.38;2.22;;;;;;;22.17;46.64;100218.22;10518506;28;20040;-70
2023/09/07 19:19:17;;;;;;;19.02;2.97;;;;;;;22.01;47.34;100227.91;10537810;28;20102;-70
2023/09/07 19:24:18;;;;;;;11.98;2.45;;;;;;;21.44;47.09;100161.28;10536298;28;20040;-70
2023/09/07 19:29:20;;;;;;;8.88;2.40;;;;;;;21.76;47.42;100221.03;10535634;28;20495;-69
2023/09/07 19:34:22;;;;;;;18.38;3.47;;;;;;;21.73;46.71;100223.41;10536841;28;20131;-69
2023/09/07 19:39:23;;;;;;;35.88;4.35;;;;;;;21.68;47.53;100210.63;10537433;28;20051;-70
2023/09/07 19:44:24;;;;;;;31.45;5.13;;;;;;;21.58;47.53;100203.16;10535748;28;20503;-69
2023/09/07 19:49:24;;;;;;;33.63;4.85;;;;;;;21.51;48.75;100194.41;10535958;28;20097;-70
2023/09/07 19:54:25;;;;;;;15.48;3.50;;;;;;;21.51;48.66;100213.31;10539716;28;20066;-69
2023/09/07 19:59:26;;;;;;;13.75;2.83;;;;;;;21.21;48.47;100170.31;10543434;28;20461;-72
2023/09/07 20:04:28;;;;;;;15.52;2.90;;;;;;;21.16;49.03;100186.44;10543384;28;20139;-70
2023/09/07 20:09:29;;;;;;;13.20;3.25;;;;;;;21.13;49.26;100208.53;10543464;28;20043;-70
2023/09/07 20:14:30;;;;;;;11.50;3.70;;;;;;;21.16;49.54;100221.53;10543345;28;20486;-70
2023/09/07 20:19:44;;;;;;;26.15;3.67;;;;;;;20.80;52.24;100160.63;10542430;28;20036;-70
2023/09/07 20:24:44;;;;;;;44.70;4.80;;;;;;;20.91;52.80;100197.53;10542898;28;20433;-70
2023/09/07 20:29:45;;;;;;;30.48;4.28;;;;;;;20.76;54.03;100208.88;10524737;28;20104;-70
2023/09/07 20:34:46;;;;;;;34.30;4.00;;;;;;;20.56;54.00;100192.25;10541685;28;20032;-69
2023/09/07 20:39:47;;;;;;;20.75;3.53;;;;;;;20.71;54.75;100220.38;10541940;28;20040;-70
2023/09/07 20:44:47;;;;;;;20.55;3.60;;;;;;;20.57;56.06;100212.78;10523999;28;20036;-71
2023/09/07 20:49:48;;;;;;;14.05;3.22;;;;;;;20.47;56.78;100214.16;10541350;28;20388;-70
2023/09/07 20:54:49;;;;;;;19.30;2.90;;;;;;;20.32;56.71;100194.94;10541212;28;20039;-70
2023/09/07 20:59:51;;;;;;;10.23;3.03;;;;;;;19.97;57.12;100160.69;10541314;28;20039;-70
2023/09/07 21:04:53;;;;;;;11.10;2.90;;;;;;;20.14;57.87;100211.25;10540230;28;20126;-69
2023/09/07 21:09:53;;;;;;;18.52;3.50;;;;;;;19.95;58.42;100216.75;10540901;28;20040;-70
2023/09/07 21:14:55;;;;;;;14.63;3.63;;;;;;;19.69;57.93;100201.81;10540236;28;20044;-69
2023/09/07 21:19:56;;;;;;;23.27;4.05;;;;;;;19.59;57.94;100218.53;10540163;28;20036;-71
2023/09/07 21:24:57;;;;;;;16.60;3.58;;;;;;;19.55;56.93;100229.97;10540403;28;20066;-69
2023/09/07 21:29:57;;;;;;;13.75;2.85;;;;;;;19.15;55.89;100212.50;10540066;28;20482;-71
2023/09/07 21:34:58;;;;;;;11.80;2.80;;;;;;;19.24;55.75;100253.41;10540375;28;20403;-69
2023/09/07 21:39:59;;;;;;;12.68;2.75;;;;;;;19.18;56.01;100238.16;10540045;28;20059;-69
2023/09/07 21:45:00;;;;;;;14.27;2.53;;;;;;;19.05;56.93;100244.50;10538214;28;20821;-69
2023/09/07 21:50:02;;;;;;;17.85;3.15;;;;;;;18.90;57.89;100222.56;10539650;28;20123;-70
2023/09/07 21:55:03;;;;;;;14.25;2.75;;;;;;;18.84;57.97;100228.84;10539803;28;20097;-69
2023/09/07 22:00:11;;;;;;;59.30;5.13;;;;;;;18.79;58.75;100234.91;10539185;28;20093;-69
2023/09/07 22:05:11;;;;;;;11.07;3.13;;;;;;;18.65;59.61;100244.97;10538743;28;20519;-69
2023/09/07 22:10:13;;;;;;;47.00;4.28;;;;;;;18.16;60.57;100194.78;10538930;28;20131;-69
2023/09/07 22:15:14;;;;;;;24.48;3.40;;;;;;;18.16;61.31;100224.34;10538486;28;20046;-70
2023/09/07 22:20:15;;;;;;;9.10;3.35;;;;;;;18.14;61.27;100238.00;10538006;28;20105;-69
2023/09/07 22:25:16;;;;;;;22.77;4.00;;;;;;;17.81;61.99;100210.59;10537748;28;20048;-69
2023/09/07 22:30:17;;;;;;;18.08;3.13;;;;;;;17.88;62.45;100230.16;10537635;28;20100;-69
2023/09/07 22:35:17;;;;;;;13.55;3.15;;;;;;;17.83;62.17;100236.19;10537414;28;20070;-69
2023/09/07 22:40:18;;;;;;;15.60;7.57;;;;;;;17.72;62.32;100229.63;10538013;28;20403;-69
2023/09/07 22:45:19;;;;;;;18.42;3.85;;;;;;;17.64;62.58;100237.13;10537729;28;20074;-69
2023/09/07 22:50:20;;;;;;;8.90;2.97;;;;;;;17.64;62.65;100254.06;10537699;28;20036;-69
2023/09/07 22:55:40;;;;;;;13.68;3.22;;;;;;;17.65;64.99;100255.72;10537574;28;20040;-71
2023/09/07 23:00:42;;;;;;;20.13;3.83;;;;;;;17.49;63.62;100257.03;10536804;28;20579;-69